Terminal Aerodrome Forecast
Issued by NWS Oklahoma City, OK

Home | Current Version | Previous Version | Text Only | Print | Product List | Glossary On
Versions: 1 2 3 4 5 6 7 8 9 10 11 12 13
000
FTUS44 KOUN 262204 AAB
TAFOUN
TAF AMD
KOUN 262204Z 2622/2718 VRB05KT P6SM VCSH SCT040 BKN100
     FM270200 12007KT P6SM FEW012 BKN060
     FM271400 18007KT P6SM BKN060=

USA.gov is the U.S. government's official web portal to all federal, state and local government web resources and services.